sensor_id;sensor_type;location;lat;lon;timestamp;temperature;humidity
9998;DHT22;5038;53.064;8.624;2023-02-17T00:02:21;9.30;99.90
9998;DHT22;5038;53.064;8.624;2023-02-17T00:04:51;9.40;99.90
9998;DHT22;5038;53.064;8.624;2023-02-17T00:07:21;9.40;99.90
9998;DHT22;5038;53.064;8.624;2023-02-17T00:09:49;9.40;99.90
9998;DHT22;5038;53.064;8.624;2023-02-17T00:12:17;9.40;99.90
9998;DHT22;5038;53.064;8.624;2023-02-17T00:14:45;9.40;99.90
9998;DHT22;5038;53.064;8.624;2023-02-17T00:17:13;9.40;99.90
9998;DHT22;5038;53.064;8.624;2023-02-17T00:19:41;9.50;99.90
9998;DHT22;5038;53.064;8.624;2023-02-17T00:22:10;9.50;99.90
9998;DHT22;5038;53.064;8.624;2023-02-17T00:24:40;9.50;99.90
9998;DHT22;5038;53.064;8.624;2023-02-17T00:27:09;9.50;99.90
9998;DHT22;5038;53.064;8.624;2023-02-17T00:29:37;9.50;99.90
9998;DHT22;5038;53.064;8.624;2023-02-17T00:32:05;9.50;99.90
9998;DHT22;5038;53.064;8.624;2023-02-17T00:34:36;9.50;99.90
9998;DHT22;5038;53.064;8.624;2023-02-17T00:37:06;9.50;99.90
9998;DHT22;5038;53.064;8.624;2023-02-17T00:39:34;9.60;99.90
9998;DHT22;5038;53.064;8.624;2023-02-17T00:42:03;9.60;99.90
9998;DHT22;5038;53.064;8.624;2023-02-17T00:44:32;9.60;99.90
9998;DHT22;5038;53.064;8.624;2023-02-17T00:47:00;9.60;99.90
9998;DHT22;5038;53.064;8.624;2023-02-17T00:49:28;9.60;99.90
9998;DHT22;5038;53.064;8.624;2023-02-17T00:51:58;9.60;99.90
9998;DHT22;5038;53.064;8.624;2023-02-17T00:54:26;9.60;99.90
9998;DHT22;5038;53.064;8.624;2023-02-17T00:56:55;9.60;99.90
9998;DHT22;5038;53.064;8.624;2023-02-17T00:59:24;9.60;99.90
9998;DHT22;5038;53.064;8.624;2023-02-17T01:01:52;9.60;99.90
9998;DHT22;5038;53.064;8.624;2023-02-17T01:04:21;9.70;99.90
9998;DHT22;5038;53.064;8.624;2023-02-17T01:06:49;9.60;99.90
9998;DHT22;5038;53.064;8.624;2023-02-17T01:09:17;9.70;99.90
9998;DHT22;5038;53.064;8.624;2023-02-17T01:11:47;9.70;99.90
9998;DHT22;5038;53.064;8.624;2023-02-17T01:14:16;9.70;99.90
9998;DHT22;5038;53.064;8.624;2023-02-17T01:16:47;9.70;99.90
9998;DHT22;5038;53.064;8.624;2023-02-17T01:19:17;9.70;99.90
9998;DHT22;5038;53.064;8.624;2023-02-17T01:21:48;9.70;99.90
9998;DHT22;5038;53.064;8.624;2023-02-17T01:24:16;9.70;99.90
9998;DHT22;5038;53.064;8.624;2023-02-17T01:26:45;9.70;99.90
9998;DHT22;5038;53.064;8.624;2023-02-17T01:29:13;9.70;99.90
9998;DHT22;5038;53.064;8.624;2023-02-17T01:31:42;9.80;99.90
9998;DHT22;5038;53.064;8.624;2023-02-17T01:34:12;9.80;99.90
9998;DHT22;5038;53.064;8.624;2023-02-17T01:36:40;9.70;99.90
9998;DHT22;5038;53.064;8.624;2023-02-17T01:39:11;9.80;99.90
9998;DHT22;5038;53.064;8.624;2023-02-17T01:41:40;9.80;99.90
9998;DHT22;5038;53.064;8.624;2023-02-17T01:44:18;9.80;99.90
9998;DHT22;5038;53.064;8.624;2023-02-17T01:46:48;9.80;99.90
9998;DHT22;5038;53.064;8.624;2023-02-17T01:49:25;9.80;99.90
9998;DHT22;5038;53.064;8.624;2023-02-17T01:51:56;9.80;99.90
9998;DHT22;5038;53.064;8.624;2023-02-17T01:54:28;9.80;99.90
9998;DHT22;5038;53.064;8.624;2023-02-17T01:56:58;9.90;99.90
9998;DHT22;5038;53.064;8.624;2023-02-17T01:59:28;9.80;99.90
9998;DHT22;5038;53.064;8.624;2023-02-17T02:01:59;9.80;99.90
9998;DHT22;5038;53.064;8.624;2023-02-17T02:04:33;9.90;99.90
9998;DHT22;5038;53.064;8.624;2023-02-17T02:07:03;9.90;99.90
9998;DHT22;5038;53.064;8.624;2023-02-17T02:09:36;9.90;99.90
9998;DHT22;5038;53.064;8.624;2023-02-17T02:12:17;9.90;99.90
9998;DHT22;5038;53.064;8.624;2023-02-17T02:14:45;9.90;99.90
9998;DHT22;5038;53.064;8.624;2023-02-17T02:17:22;9.90;99.90
9998;DHT22;5038;53.064;8.624;2023-02-17T02:20:17;9.90;99.90
9998;DHT22;5038;53.064;8.624;2023-02-17T02:29:16;9.90;99.90
9998;DHT22;5038;53.064;8.624;2023-02-17T02:31:59;9.90;99.90
9998;DHT22;5038;53.064;8.624;2023-02-17T02:34:37;9.90;99.90
9998;DHT22;5038;53.064;8.624;2023-02-17T02:37:12;9.90;99.90
9998;DHT22;5038;53.064;8.624;2023-02-17T02:39:45;9.90;99.90
9998;DHT22;5038;53.064;8.624;2023-02-17T02:42:16;10.00;99.90
9998;DHT22;5038;53.064;8.624;2023-02-17T02:44:47;9.90;99.90
9998;DHT22;5038;53.064;8.624;2023-02-17T02:47:44;10.00;99.90
9998;DHT22;5038;53.064;8.624;2023-02-17T02:50:23;10.00;99.90
9998;DHT22;5038;53.064;8.624;2023-02-17T02:53:11;10.00;99.90
9998;DHT22;5038;53.064;8.624;2023-02-17T02:55:51;10.00;99.90
9998;DHT22;5038;53.064;8.624;2023-02-17T02:58:27;10.00;99.90
9998;DHT22;5038;53.064;8.624;2023-02-17T03:01:04;10.00;99.90
9998;DHT22;5038;53.064;8.624;2023-02-17T03:03:37;10.00;99.90
9998;DHT22;5038;53.064;8.624;2023-02-17T03:06:15;10.00;99.90
9998;DHT22;5038;53.064;8.624;2023-02-17T03:08:50;10.00;99.90
9998;DHT22;5038;53.064;8.624;2023-02-17T03:11:22;10.00;99.90
9998;DHT22;5038;53.064;8.624;2023-02-17T03:14:01;10.00;99.90
9998;DHT22;5038;53.064;8.624;2023-02-17T03:16:29;10.00;99.90
9998;DHT22;5038;53.064;8.624;2023-02-17T03:18:58;10.00;99.90
9998;DHT22;5038;53.064;8.624;2023-02-17T03:21:34;10.00;99.90
9998;DHT22;5038;53.064;8.624;2023-02-17T03:24:03;9.90;99.90
9998;DHT22;5038;53.064;8.624;2023-02-17T03:26:31;10.00;99.90
9998;DHT22;5038;53.064;8.624;2023-02-17T03:28:59;10.00;99.90
9998;DHT22;5038;53.064;8.624;2023-02-17T03:31:28;10.00;99.90
9998;DHT22;5038;53.064;8.624;2023-02-17T03:33:57;10.00;99.90
9998;DHT22;5038;53.064;8.624;2023-02-17T03:36:25;10.00;99.90
9998;DHT22;5038;53.064;8.624;2023-02-17T03:38:55;10.00;99.90
9998;DHT22;5038;53.064;8.624;2023-02-17T03:41:23;10.00;99.90
9998;DHT22;5038;53.064;8.624;2023-02-17T03:43:51;10.00;99.90
9998;DHT22;5038;53.064;8.624;2023-02-17T03:46:20;10.00;99.90
9998;DHT22;5038;53.064;8.624;2023-02-17T03:48:48;10.10;99.90
9998;DHT22;5038;53.064;8.624;2023-02-17T03:51:17;10.10;99.90
9998;DHT22;5038;53.064;8.624;2023-02-17T03:53:47;10.10;99.90
9998;DHT22;5038;53.064;8.624;2023-02-17T03:56:18;10.10;99.90
9998;DHT22;5038;53.064;8.624;2023-02-17T03:58:46;10.10;99.90
9998;DHT22;5038;53.064;8.624;2023-02-17T04:01:14;10.10;99.90
9998;DHT22;5038;53.064;8.624;2023-02-17T04:03:42;10.10;99.90
9998;DHT22;5038;53.064;8.624;2023-02-17T04:06:11;10.10;99.90
9998;DHT22;5038;53.064;8.624;2023-02-17T04:08:39;10.10;99.90
9998;DHT22;5038;53.064;8.624;2023-02-17T04:11:08;10.10;99.90
9998;DHT22;5038;53.064;8.624;2023-02-17T04:13:38;10.10;99.90
9998;DHT22;5038;53.064;8.624;2023-02-17T04:16:08;10.10;99.90
9998;DHT22;5038;53.064;8.624;2023-02-17T04:18:37;10.10;99.90
9998;DHT22;5038;53.064;8.624;2023-02-17T04:21:06;10.10;99.90
9998;DHT22;5038;53.064;8.624;2023-02-17T04:23:35;10.10;99.90
9998;DHT22;5038;53.064;8.624;2023-02-17T04:26:04;10.20;99.90
9998;DHT22;5038;53.064;8.624;2023-02-17T04:28:33;10.10;99.90
9998;DHT22;5038;53.064;8.624;2023-02-17T04:31:03;10.20;99.90
9998;DHT22;5038;53.064;8.624;2023-02-17T04:33:31;10.20;99.90
9998;DHT22;5038;53.064;8.624;2023-02-17T04:36:00;10.20;99.90
9998;DHT22;5038;53.064;8.624;2023-02-17T04:38:30;10.20;99.90
9998;DHT22;5038;53.064;8.624;2023-02-17T04:40:59;10.20;99.90
9998;DHT22;5038;53.064;8.624;2023-02-17T04:43:28;10.20;99.90
9998;DHT22;5038;53.064;8.624;2023-02-17T04:45:57;10.20;99.90
9998;DHT22;5038;53.064;8.624;2023-02-17T04:48:27;10.20;99.90
9998;DHT22;5038;53.064;8.624;2023-02-17T04:50:55;10.20;99.90
9998;DHT22;5038;53.064;8.624;2023-02-17T04:53:23;10.20;99.90
9998;DHT22;5038;53.064;8.624;2023-02-17T04:55:52;10.20;99.90
9998;DHT22;5038;53.064;8.624;2023-02-17T04:58:20;10.20;99.90
9998;DHT22;5038;53.064;8.624;2023-02-17T05:00:49;10.30;99.90
9998;DHT22;5038;53.064;8.624;2023-02-17T05:03:18;10.20;99.90
9998;DHT22;5038;53.064;8.624;2023-02-17T05:05:48;10.20;99.90
9998;DHT22;5038;53.064;8.624;2023-02-17T05:08:16;10.20;99.90
9998;DHT22;5038;53.064;8.624;2023-02-17T05:10:44;10.20;99.90
9998;DHT22;5038;53.064;8.624;2023-02-17T05:13:13;10.30;99.90
9998;DHT22;5038;53.064;8.624;2023-02-17T05:15:42;10.20;99.90
9998;DHT22;5038;53.064;8.624;2023-02-17T05:18:11;10.30;99.90
9998;DHT22;5038;53.064;8.624;2023-02-17T05:20:39;10.20;99.90
9998;DHT22;5038;53.064;8.624;2023-02-17T05:23:09;10.30;99.90
9998;DHT22;5038;53.064;8.624;2023-02-17T05:25:37;10.30;99.90
9998;DHT22;5038;53.064;8.624;2023-02-17T05:28:06;10.30;99.90
9998;DHT22;5038;53.064;8.624;2023-02-17T05:30:34;10.30;99.90
9998;DHT22;5038;53.064;8.624;2023-02-17T05:33:03;10.30;99.90
9998;DHT22;5038;53.064;8.624;2023-02-17T05:35:33;10.30;99.90
9998;DHT22;5038;53.064;8.624;2023-02-17T05:38:01;10.30;99.90
9998;DHT22;5038;53.064;8.624;2023-02-17T05:40:31;10.30;99.90
9998;DHT22;5038;53.064;8.624;2023-02-17T05:42:59;10.30;99.90
9998;DHT22;5038;53.064;8.624;2023-02-17T05:45:27;10.30;99.90
9998;DHT22;5038;53.064;8.624;2023-02-17T05:47:55;10.30;99.90
9998;DHT22;5038;53.064;8.624;2023-02-17T05:50:23;10.30;99.90
9998;DHT22;5038;53.064;8.624;2023-02-17T05:52:52;10.30;99.90
9998;DHT22;5038;53.064;8.624;2023-02-17T05:55:20;10.30;99.90
9998;DHT22;5038;53.064;8.624;2023-02-17T05:57:50;10.30;99.90
9998;DHT22;5038;53.064;8.624;2023-02-17T06:00:19;10.30;99.90
9998;DHT22;5038;53.064;8.624;2023-02-17T06:02:47;10.30;99.90
9998;DHT22;5038;53.064;8.624;2023-02-17T06:05:15;10.40;99.90
9998;DHT22;5038;53.064;8.624;2023-02-17T06:07:44;10.40;99.90
9998;DHT22;5038;53.064;8.624;2023-02-17T06:10:12;10.40;99.90
9998;DHT22;5038;53.064;8.624;2023-02-17T06:12:40;10.40;99.90
9998;DHT22;5038;53.064;8.624;2023-02-17T06:15:10;10.40;99.90
9998;DHT22;5038;53.064;8.624;2023-02-17T06:17:38;10.40;99.90
9998;DHT22;5038;53.064;8.624;2023-02-17T06:20:07;10.40;99.90
9998;DHT22;5038;53.064;8.624;2023-02-17T06:22:36;10.40;99.90
9998;DHT22;5038;53.064;8.624;2023-02-17T06:25:04;10.40;99.90
9998;DHT22;5038;53.064;8.624;2023-02-17T06:27:32;10.40;99.90
9998;DHT22;5038;53.064;8.624;2023-02-17T06:30:01;10.40;99.90
9998;DHT22;5038;53.064;8.624;2023-02-17T06:32:30;10.40;99.90
9998;DHT22;5038;53.064;8.624;2023-02-17T06:35:00;10.40;99.90
9998;DHT22;5038;53.064;8.624;2023-02-17T06:37:28;10.40;99.90
9998;DHT22;5038;53.064;8.624;2023-02-17T06:39:56;10.40;99.90
9998;DHT22;5038;53.064;8.624;2023-02-17T06:42:24;10.40;99.90
9998;DHT22;5038;53.064;8.624;2023-02-17T06:44:52;10.40;99.90
9998;DHT22;5038;53.064;8.624;2023-02-17T06:47:21;10.40;99.90
9998;DHT22;5038;53.064;8.624;2023-02-17T06:49:50;10.40;99.90
9998;DHT22;5038;53.064;8.624;2023-02-17T06:52:18;10.40;99.90
9998;DHT22;5038;53.064;8.624;2023-02-17T06:54:46;10.40;99.90
9998;DHT22;5038;53.064;8.624;2023-02-17T06:57:15;10.40;99.90
9998;DHT22;5038;53.064;8.624;2023-02-17T06:59:43;10.40;99.90
9998;DHT22;5038;53.064;8.624;2023-02-17T07:02:12;10.40;99.90
9998;DHT22;5038;53.064;8.624;2023-02-17T07:04:41;10.40;99.90
9998;DHT22;5038;53.064;8.624;2023-02-17T07:07:11;10.40;99.90
9998;DHT22;5038;53.064;8.624;2023-02-17T07:09:39;10.40;99.90
9998;DHT22;5038;53.064;8.624;2023-02-17T07:12:08;10.30;99.90
9998;DHT22;5038;53.064;8.624;2023-02-17T07:14:36;10.40;99.90
9998;DHT22;5038;53.064;8.624;2023-02-17T07:17:04;10.30;99.90
9998;DHT22;5038;53.064;8.624;2023-02-17T07:19:32;10.30;99.90
9998;DHT22;5038;53.064;8.624;2023-02-17T07:22:00;10.30;99.90
9998;DHT22;5038;53.064;8.624;2023-02-17T07:24:30;10.30;99.90
9998;DHT22;5038;53.064;8.624;2023-02-17T07:26:59;10.30;99.90
9998;DHT22;5038;53.064;8.624;2023-02-17T07:29:27;10.30;99.90
9998;DHT22;5038;53.064;8.624;2023-02-17T07:31:55;10.30;99.90
9998;DHT22;5038;53.064;8.624;2023-02-17T07:34:24;10.30;99.90
9998;DHT22;5038;53.064;8.624;2023-02-17T07:36:53;10.30;99.90
9998;DHT22;5038;53.064;8.624;2023-02-17T07:39:21;10.30;99.90
9998;DHT22;5038;53.064;8.624;2023-02-17T07:41:50;10.30;99.90
9998;DHT22;5038;53.064;8.624;2023-02-17T07:44:19;10.30;99.90
9998;DHT22;5038;53.064;8.624;2023-02-17T07:46:47;10.30;99.90
9998;DHT22;5038;53.064;8.624;2023-02-17T07:49:15;10.30;99.90
9998;DHT22;5038;53.064;8.624;2023-02-17T07:51:43;10.30;99.90
9998;DHT22;5038;53.064;8.624;2023-02-17T07:54:11;10.30;99.90
9998;DHT22;5038;53.064;8.624;2023-02-17T07:56:40;10.30;99.90
9998;DHT22;5038;53.064;8.624;2023-02-17T07:59:10;10.30;99.90
9998;DHT22;5038;53.064;8.624;2023-02-17T08:01:39;10.30;99.90
9998;DHT22;5038;53.064;8.624;2023-02-17T08:04:07;10.30;99.90
9998;DHT22;5038;53.064;8.624;2023-02-17T08:06:36;10.30;99.90
9998;DHT22;5038;53.064;8.624;2023-02-17T08:09:05;10.30;99.90
9998;DHT22;5038;53.064;8.624;2023-02-17T08:11:51;10.30;99.90
9998;DHT22;5038;53.064;8.624;2023-02-17T08:14:38;10.30;99.90
9998;DHT22;5038;53.064;8.624;2023-02-17T08:17:07;10.30;99.90
9998;DHT22;5038;53.064;8.624;2023-02-17T08:19:35;10.30;99.90
9998;DHT22;5038;53.064;8.624;2023-02-17T08:22:15;10.30;99.90
9998;DHT22;5038;53.064;8.624;2023-02-17T08:24:44;10.30;99.90
9998;DHT22;5038;53.064;8.624;2023-02-17T08:27:13;10.30;99.90
9998;DHT22;5038;53.064;8.624;2023-02-17T08:29:43;10.40;99.90
9998;DHT22;5038;53.064;8.624;2023-02-17T08:32:13;10.40;99.90
9998;DHT22;5038;53.064;8.624;2023-02-17T08:34:42;10.40;99.90
9998;DHT22;5038;53.064;8.624;2023-02-17T08:37:10;10.40;99.90
9998;DHT22;5038;53.064;8.624;2023-02-17T08:39:39;10.40;99.90
9998;DHT22;5038;53.064;8.624;2023-02-17T08:42:07;10.40;99.90
9998;DHT22;5038;53.064;8.624;2023-02-17T08:44:37;10.40;99.90
9998;DHT22;5038;53.064;8.624;2023-02-17T08:47:07;10.40;99.90
9998;DHT22;5038;53.064;8.624;2023-02-17T08:49:36;10.40;99.90
9998;DHT22;5038;53.064;8.624;2023-02-17T08:52:04;10.40;99.90
9998;DHT22;5038;53.064;8.624;2023-02-17T08:54:32;10.50;99.90
9998;DHT22;5038;53.064;8.624;2023-02-17T08:57:01;10.50;99.90
9998;DHT22;5038;53.064;8.624;2023-02-17T08:59:29;10.50;99.90
9998;DHT22;5038;53.064;8.624;2023-02-17T09:01:57;10.50;99.90
9998;DHT22;5038;53.064;8.624;2023-02-17T09:04:27;10.50;99.90
9998;DHT22;5038;53.064;8.624;2023-02-17T09:06:55;10.50;99.90
9998;DHT22;5038;53.064;8.624;2023-02-17T09:09:25;10.50;99.90
9998;DHT22;5038;53.064;8.624;2023-02-17T09:11:55;10.50;99.90
9998;DHT22;5038;53.064;8.624;2023-02-17T09:14:23;10.60;99.90
9998;DHT22;5038;53.064;8.624;2023-02-17T09:16:53;10.60;99.90
9998;DHT22;5038;53.064;8.624;2023-02-17T09:19:22;10.60;99.90
9998;DHT22;5038;53.064;8.624;2023-02-17T09:21:52;10.60;99.90
9998;DHT22;5038;53.064;8.624;2023-02-17T09:24:20;10.60;99.90
9998;DHT22;5038;53.064;8.624;2023-02-17T09:26:49;10.60;99.90
9998;DHT22;5038;53.064;8.624;2023-02-17T09:29:17;10.60;99.90
9998;DHT22;5038;53.064;8.624;2023-02-17T09:31:45;10.70;99.90
9998;DHT22;5038;53.064;8.624;2023-02-17T09:34:14;10.70;99.90
9998;DHT22;5038;53.064;8.624;2023-02-17T09:36:42;10.70;99.90
9998;DHT22;5038;53.064;8.624;2023-02-17T09:39:11;10.70;99.90
9998;DHT22;5038;53.064;8.624;2023-02-17T09:41:42;10.80;99.90
9998;DHT22;5038;53.064;8.624;2023-02-17T09:44:19;10.80;99.90
9998;DHT22;5038;53.064;8.624;2023-02-17T09:46:53;10.80;99.90
9998;DHT22;5038;53.064;8.624;2023-02-17T09:49:34;10.80;99.90
9998;DHT22;5038;53.064;8.624;2023-02-17T09:52:09;10.80;99.90
9998;DHT22;5038;53.064;8.624;2023-02-17T09:54:48;10.80;99.90
9998;DHT22;5038;53.064;8.624;2023-02-17T09:57:21;10.90;99.90
9998;DHT22;5038;53.064;8.624;2023-02-17T09:59:54;10.90;99.90
9998;DHT22;5038;53.064;8.624;2023-02-17T10:02:28;10.90;99.90
9998;DHT22;5038;53.064;8.624;2023-02-17T10:05:03;10.90;99.90
9998;DHT22;5038;53.064;8.624;2023-02-17T10:07:37;11.00;99.90
9998;DHT22;5038;53.064;8.624;2023-02-17T10:10:13;11.00;99.90
9998;DHT22;5038;53.064;8.624;2023-02-17T10:12:45;11.10;99.90
9998;DHT22;5038;53.064;8.624;2023-02-17T10:15:17;11.10;99.90
9998;DHT22;5038;53.064;8.624;2023-02-17T10:17:52;11.10;99.90
9998;DHT22;5038;53.064;8.624;2023-02-17T10:20:24;11.10;99.90
9998;DHT22;5038;53.064;8.624;2023-02-17T10:22:56;11.20;99.90
9998;DHT22;5038;53.064;8.624;2023-02-17T10:25:43;11.20;99.90
9998;DHT22;5038;53.064;8.624;2023-02-17T10:28:17;11.20;99.90
9998;DHT22;5038;53.064;8.624;2023-02-17T10:30:54;11.30;99.90
9998;DHT22;5038;53.064;8.624;2023-02-17T10:33:30;11.30;99.90
9998;DHT22;5038;53.064;8.624;2023-02-17T10:36:10;11.30;99.90
9998;DHT22;5038;53.064;8.624;2023-02-17T10:38:48;11.30;99.90
9998;DHT22;5038;53.064;8.624;2023-02-17T10:41:23;11.40;99.90
9998;DHT22;5038;53.064;8.624;2023-02-17T10:43:54;11.40;99.90
9998;DHT22;5038;53.064;8.624;2023-02-17T10:46:26;11.50;99.90
9998;DHT22;5038;53.064;8.624;2023-02-17T10:48:57;11.50;99.90
9998;DHT22;5038;53.064;8.624;2023-02-17T10:51:28;11.50;99.90
9998;DHT22;5038;53.064;8.624;2023-02-17T10:54:01;11.50;99.90
9998;DHT22;5038;53.064;8.624;2023-02-17T10:56:36;11.50;99.90
9998;DHT22;5038;53.064;8.624;2023-02-17T10:59:10;11.50;99.90
9998;DHT22;5038;53.064;8.624;2023-02-17T11:01:40;11.50;99.90
9998;DHT22;5038;53.064;8.624;2023-02-17T11:04:11;11.50;99.90
9998;DHT22;5038;53.064;8.624;2023-02-17T11:06:42;11.60;99.90
9998;DHT22;5038;53.064;8.624;2023-02-17T11:09:18;11.60;99.90
9998;DHT22;5038;53.064;8.624;2023-02-17T11:11:57;11.60;99.90
9998;DHT22;5038;53.064;8.624;2023-02-17T11:14:27;11.60;99.90
9998;DHT22;5038;53.064;8.624;2023-02-17T11:16:59;11.60;99.90
9998;DHT22;5038;53.064;8.624;2023-02-17T11:19:30;11.60;99.90
9998;DHT22;5038;53.064;8.624;2023-02-17T11:22:01;11.70;99.90
9998;DHT22;5038;53.064;8.624;2023-02-17T11:24:32;11.70;99.90
9998;DHT22;5038;53.064;8.624;2023-02-17T11:27:03;11.70;99.90
9998;DHT22;5038;53.064;8.624;2023-02-17T11:29:32;11.70;99.90
9998;DHT22;5038;53.064;8.624;2023-02-17T11:32:02;11.70;99.90
9998;DHT22;5038;53.064;8.624;2023-02-17T11:34:35;11.70;99.90
9998;DHT22;5038;53.064;8.624;2023-02-17T11:37:18;11.70;99.90
9998;DHT22;5038;53.064;8.624;2023-02-17T11:39:48;11.70;99.90
9998;DHT22;5038;53.064;8.624;2023-02-17T11:42:21;11.70;99.90
9998;DHT22;5038;53.064;8.624;2023-02-17T11:44:50;11.70;99.90
9998;DHT22;5038;53.064;8.624;2023-02-17T11:47:27;11.70;99.90
9998;DHT22;5038;53.064;8.624;2023-02-17T11:50:09;11.70;99.90
9998;DHT22;5038;53.064;8.624;2023-02-17T11:52:51;11.70;99.90
9998;DHT22;5038;53.064;8.624;2023-02-17T11:55:27;11.70;99.90
9998;DHT22;5038;53.064;8.624;2023-02-17T11:58:10;11.80;99.90
9998;DHT22;5038;53.064;8.624;2023-02-17T12:00:44;11.80;99.90
9998;DHT22;5038;53.064;8.624;2023-02-17T12:03:46;11.80;99.90
9998;DHT22;5038;53.064;8.624;2023-02-17T12:06:23;11.80;99.90
9998;DHT22;5038;53.064;8.624;2023-02-17T12:08:59;11.80;99.90
9998;DHT22;5038;53.064;8.624;2023-02-17T12:11:36;11.70;99.90
9998;DHT22;5038;53.064;8.624;2023-02-17T12:14:18;11.80;99.90
9998;DHT22;5038;53.064;8.624;2023-02-17T12:16:53;11.70;99.90
9998;DHT22;5038;53.064;8.624;2023-02-17T12:19:36;11.70;99.90
9998;DHT22;5038;53.064;8.624;2023-02-17T12:22:15;11.70;99.90
9998;DHT22;5038;53.064;8.624;2023-02-17T12:24:56;11.70;99.90
9998;DHT22;5038;53.064;8.624;2023-02-17T12:27:37;11.70;99.90
9998;DHT22;5038;53.064;8.624;2023-02-17T12:30:19;11.60;99.90
9998;DHT22;5038;53.064;8.624;2023-02-17T12:36:04;11.60;99.90
9998;DHT22;5038;53.064;8.624;2023-02-17T12:38:38;11.60;99.90
9998;DHT22;5038;53.064;8.624;2023-02-17T12:41:12;11.60;99.90
9998;DHT22;5038;53.064;8.624;2023-02-17T12:43:44;11.60;99.90
9998;DHT22;5038;53.064;8.624;2023-02-17T12:46:20;11.60;99.90
9998;DHT22;5038;53.064;8.624;2023-02-17T12:48:54;11.60;99.90
9998;DHT22;5038;53.064;8.624;2023-02-17T12:51:27;11.60;99.90
9998;DHT22;5038;53.064;8.624;2023-02-17T12:54:01;11.60;99.90
9998;DHT22;5038;53.064;8.624;2023-02-17T12:56:47;11.60;99.90
9998;DHT22;5038;53.064;8.624;2023-02-17T12:59:18;11.60;99.90
9998;DHT22;5038;53.064;8.624;2023-02-17T13:01:55;11.50;99.90
9998;DHT22;5038;53.064;8.624;2023-02-17T13:04:27;11.50;99.90
9998;DHT22;5038;53.064;8.624;2023-02-17T13:07:02;11.50;99.90
9998;DHT22;5038;53.064;8.624;2023-02-17T13:09:35;11.50;99.90
9998;DHT22;5038;53.064;8.624;2023-02-17T13:12:16;11.50;99.90
9998;DHT22;5038;53.064;8.624;2023-02-17T13:14:45;11.50;99.90
9998;DHT22;5038;53.064;8.624;2023-02-17T13:17:27;11.50;99.90
9998;DHT22;5038;53.064;8.624;2023-02-17T13:20:23;11.50;99.90
9998;DHT22;5038;53.064;8.624;2023-02-17T13:23:04;11.50;99.90
9998;DHT22;5038;53.064;8.624;2023-02-17T13:25:33;11.50;99.90
9998;DHT22;5038;53.064;8.624;2023-02-17T13:28:17;11.60;99.90
9998;DHT22;5038;53.064;8.624;2023-02-17T13:30:46;11.50;99.90
9998;DHT22;5038;53.064;8.624;2023-02-17T13:33:30;11.60;99.90
9998;DHT22;5038;53.064;8.624;2023-02-17T13:35:58;11.60;99.90
9998;DHT22;5038;53.064;8.624;2023-02-17T13:38:27;11.60;99.90
9998;DHT22;5038;53.064;8.624;2023-02-17T13:40:59;11.60;99.90
9998;DHT22;5038;53.064;8.624;2023-02-17T13:43:28;11.70;99.90
9998;DHT22;5038;53.064;8.624;2023-02-17T13:45:58;11.70;99.90
9998;DHT22;5038;53.064;8.624;2023-02-17T13:48:31;11.70;99.90
9998;DHT22;5038;53.064;8.624;2023-02-17T13:51:00;11.70;99.90
9998;DHT22;5038;53.064;8.624;2023-02-17T13:53:30;11.80;99.90
9998;DHT22;5038;53.064;8.624;2023-02-17T13:56:00;11.80;99.90
9998;DHT22;5038;53.064;8.624;2023-02-17T13:58:30;11.80;99.90
9998;DHT22;5038;53.064;8.624;2023-02-17T14:01:01;11.80;99.90
9998;DHT22;5038;53.064;8.624;2023-02-17T14:03:34;11.80;99.90
9998;DHT22;5038;53.064;8.624;2023-02-17T14:06:12;11.80;99.90
9998;DHT22;5038;53.064;8.624;2023-02-17T14:08:48;11.90;99.90
9998;DHT22;5038;53.064;8.624;2023-02-17T14:11:18;11.90;99.90
9998;DHT22;5038;53.064;8.624;2023-02-17T14:13:48;11.90;99.90
9998;DHT22;5038;53.064;8.624;2023-02-17T14:16:27;12.00;99.90
9998;DHT22;5038;53.064;8.624;2023-02-17T14:19:05;12.00;99.90
9998;DHT22;5038;53.064;8.624;2023-02-17T14:21:36;12.00;99.90
9998;DHT22;5038;53.064;8.624;2023-02-17T14:24:04;12.00;99.90
9998;DHT22;5038;53.064;8.624;2023-02-17T14:26:36;12.10;99.90
9998;DHT22;5038;53.064;8.624;2023-02-17T14:29:08;12.10;99.90
9998;DHT22;5038;53.064;8.624;2023-02-17T14:31:37;12.10;99.90
9998;DHT22;5038;53.064;8.624;2023-02-17T14:34:12;12.10;99.90
9998;DHT22;5038;53.064;8.624;2023-02-17T14:36:41;12.10;99.90
9998;DHT22;5038;53.064;8.624;2023-02-17T14:39:13;12.10;99.90
9998;DHT22;5038;53.064;8.624;2023-02-17T14:41:42;12.10;99.90
9998;DHT22;5038;53.064;8.624;2023-02-17T14:44:10;12.10;99.90
9998;DHT22;5038;53.064;8.624;2023-02-17T14:46:38;12.20;99.90
9998;DHT22;5038;53.064;8.624;2023-02-17T14:49:08;12.20;99.90
9998;DHT22;5038;53.064;8.624;2023-02-17T14:51:37;12.20;99.90
9998;DHT22;5038;53.064;8.624;2023-02-17T14:54:12;12.20;99.90
9998;DHT22;5038;53.064;8.624;2023-02-17T14:56:44;12.20;99.90
9998;DHT22;5038;53.064;8.624;2023-02-17T14:59:13;12.20;99.90
9998;DHT22;5038;53.064;8.624;2023-02-17T15:01:41;12.30;99.90
9998;DHT22;5038;53.064;8.624;2023-02-17T15:04:11;12.30;99.90
9998;DHT22;5038;53.064;8.624;2023-02-17T15:06:42;12.30;99.90
9998;DHT22;5038;53.064;8.624;2023-02-17T15:09:12;12.30;99.90
9998;DHT22;5038;53.064;8.624;2023-02-17T15:11:42;12.30;99.90
9998;DHT22;5038;53.064;8.624;2023-02-17T15:14:13;12.30;99.90
9998;DHT22;5038;53.064;8.624;2023-02-17T15:16:42;12.30;99.90
9998;DHT22;5038;53.064;8.624;2023-02-17T15:19:12;12.20;99.90
9998;DHT22;5038;53.064;8.624;2023-02-17T15:21:43;12.20;99.90
9998;DHT22;5038;53.064;8.624;2023-02-17T15:24:14;12.20;99.90
9998;DHT22;5038;53.064;8.624;2023-02-17T15:26:43;12.20;99.90
9998;DHT22;5038;53.064;8.624;2023-02-17T15:29:14;12.20;99.90
9998;DHT22;5038;53.064;8.624;2023-02-17T15:31:43;12.20;99.90
9998;DHT22;5038;53.064;8.624;2023-02-17T15:34:16;12.20;99.90
9998;DHT22;5038;53.064;8.624;2023-02-17T15:36:45;12.20;99.90
9998;DHT22;5038;53.064;8.624;2023-02-17T15:39:14;12.20;99.90
9998;DHT22;5038;53.064;8.624;2023-02-17T15:41:44;12.20;99.90
9998;DHT22;5038;53.064;8.624;2023-02-17T15:44:15;12.30;99.90
9998;DHT22;5038;53.064;8.624;2023-02-17T15:46:44;12.20;99.90
9998;DHT22;5038;53.064;8.624;2023-02-17T15:49:14;12.20;99.90
9998;DHT22;5038;53.064;8.624;2023-02-17T15:51:43;12.20;99.90
9998;DHT22;5038;53.064;8.624;2023-02-17T15:54:11;12.20;99.90
9998;DHT22;5038;53.064;8.624;2023-02-17T15:56:44;12.10;99.90
9998;DHT22;5038;53.064;8.624;2023-02-17T15:59:16;12.10;99.90
9998;DHT22;5038;53.064;8.624;2023-02-17T16:01:45;12.10;99.90
9998;DHT22;5038;53.064;8.624;2023-02-17T16:04:15;12.00;99.90
9998;DHT22;5038;53.064;8.624;2023-02-17T16:06:43;11.90;99.90
9998;DHT22;5038;53.064;8.624;2023-02-17T16:09:12;11.80;99.90
9998;DHT22;5038;53.064;8.624;2023-02-17T16:11:45;11.80;99.90
9998;DHT22;5038;53.064;8.624;2023-02-17T16:14:21;11.70;99.90
9998;DHT22;5038;53.064;8.624;2023-02-17T16:16:50;11.60;99.90
9998;DHT22;5038;53.064;8.624;2023-02-17T16:19:20;11.50;99.90
9998;DHT22;5038;53.064;8.624;2023-02-17T16:21:48;11.50;99.90
9998;DHT22;5038;53.064;8.624;2023-02-17T16:24:16;11.40;99.90
9998;DHT22;5038;53.064;8.624;2023-02-17T16:26:45;11.30;99.90
9998;DHT22;5038;53.064;8.624;2023-02-17T16:29:15;11.30;99.90
9998;DHT22;5038;53.064;8.624;2023-02-17T16:31:44;11.20;99.90
9998;DHT22;5038;53.064;8.624;2023-02-17T16:34:14;11.20;99.90
9998;DHT22;5038;53.064;8.624;2023-02-17T16:36:44;11.10;99.90
9998;DHT22;5038;53.064;8.624;2023-02-17T16:39:14;11.00;99.90
9998;DHT22;5038;53.064;8.624;2023-02-17T16:41:43;11.00;99.90